PROFILE

 METAR AND TAF INFORMATION
ADDS - METARS form results

(0245 UTC 30 November 2021)
http://aviationweather.gov/metar/data/
 
HESH 300200Z 35004KT CAVOK 21/01 Q1016 NOSIG
TAF HESH 292300Z 3000/0106 32010KT CAVOK 

 AIRPORT MAP

 RUNWAY INFORMATION
Runway 04L Runway length 10108 ft Runway width 148 ft
Runway elevation 134 ft Runway displaced threshold 0 ft Runway heading 43
Runway 22R Runway length 10108 ft Runway width 148 ft
Runway elevation 119 ft Runway displaced threshold 0 ft Runway heading 223
Runway 04R Runway length 10108 ft Runway width 148 ft
Runway elevation 114 ft Runway displaced threshold 0 ft Runway heading 43
Runway 22L Runway length 10108 ft Runway width 148 ft
Runway elevation 117 ft Runway displaced threshold 0 ft Runway heading 223

 AIRPORT FREQUENCIES
Type APP Name RADAR Frequency 121.1 MHZ
Type GND Name GND Frequency 121.9 MHZ
Type RDO Name RDO Frequency 317.5 MHZ
Type TWR Name TWR Frequency 118.9 MHZ

 AIRPORT NEAR NAVIGATION AIDS
Type VOR-DME Name Sharm El Sheikh Frequency 114200 KHZ
Type NDB Name Sharm El Sheikh Frequency 335 KHZ